Time;durP1;ratioP1;P1;durP2;ratioP2;P2;SDS_P1;SDS_P2;PMS_P1;PMS_P2;Temp;Humidity;BMP_temperature;BMP_pressure;BME280_temperature;BME280_humidity;BME280_pressure;Samples;Min_cycle;Max_cycle;Signal;HPM_P1;HPM_P2
2021/09/22 00:02:27;;;;;;;2.70;1.40;;;;;;;6.82;80.87;99465.88;116659;1193;23055;-54
2021/09/22 00:04:56;;;;;;;3.00;1.80;;;;;;;6.82;80.84;99459.71;116503;1199;137485;-54
2021/09/22 00:07:44;;;;;;;2.20;1.80;;;;;;;6.80;81.00;99457.55;116813;1200;22375;-54
2021/09/22 00:10:14;;;;;;;3.10;1.90;;;;;;;6.74;80.93;99455.54;116648;1200;137793;-54
2021/09/22 00:12:43;;;;;;;2.00;1.60;;;;;;;6.70;81.46;99457.50;116624;1201;22967;-54
2021/09/22 00:15:31;;;;;;;2.20;1.70;;;;;;;6.69;81.27;99454.39;116670;1200;22343;-54
2021/09/22 00:17:59;;;;;;;3.30;1.80;;;;;;;6.68;81.53;99453.70;116651;1196;137301;-54
2021/09/22 00:20:47;;;;;;;;;;;;;;;6.68;81.25;99453.48;116773;1200;22366;-54
2021/09/22 00:23:16;;;;;;;1.60;1.30;;;;;;;6.68;81.40;99452.08;116703;1200;124088;-54
2021/09/22 00:26:04;;;;;;;;;;;;;;;6.69;81.52;99450.81;116811;1200;22339;-54
2021/09/22 00:28:32;;;;;;;3.00;1.40;;;;;;;6.69;81.51;99451.23;116698;1200;125399;-54
2021/09/22 00:31:01;;;;;;;2.00;1.70;;;;;;;6.68;81.03;99450.99;116594;1201;23368;-54
2021/09/22 00:33:29;;;;;;;3.00;1.50;;;;;;;6.65;81.13;99445.95;116611;1194;22321;-54
2021/09/22 00:35:58;;;;;;;2.60;1.80;;;;;;;6.65;81.08;99445.51;116579;1201;138489;-54
2021/09/22 00:38:26;;;;;;;2.50;1.70;;;;;;;6.64;81.02;99443.77;116593;1201;23043;-54
2021/09/22 00:40:54;;;;;;;3.50;1.50;;;;;;;6.65;81.15;99442.92;116450;1201;138129;-54
2021/09/22 00:43:22;;;;;;;2.60;1.90;;;;;;;6.65;81.20;99438.53;116685;1201;22225;-54
2021/09/22 00:45:50;;;;;;;2.10;1.90;;;;;;;6.64;81.00;99437.53;116500;1200;137698;-54
2021/09/22 00:48:19;;;;;;;2.20;1.80;;;;;;;6.65;81.18;99437.01;116622;1200;22336;-55
2021/09/22 00:50:51;;;;;;;1.70;1.50;;;;;;;6.65;80.83;99435.80;116630;1201;22265;-55
2021/09/22 00:53:19;;;;;;;2.30;1.90;;;;;;;6.62;80.74;99431.70;116360;1201;138578;-55
2021/09/22 00:55:48;;;;;;;2.90;2.00;;;;;;;6.61;80.89;99426.31;116645;1201;22342;-54
2021/09/22 00:58:38;;;;;;;2.30;1.60;;;;;;;6.61;80.84;99428.88;116519;1199;137671;-54
2021/09/22 01:01:06;;;;;;;1.50;1.40;;;;;;;6.60;80.71;99420.79;116629;1200;22339;-54
2021/09/22 01:03:35;;;;;;;2.10;1.50;;;;;;;6.61;80.90;99424.59;116757;1200;22287;-54
2021/09/22 01:06:03;;;;;;;2.80;1.60;;;;;;;6.64;80.77;99426.50;116458;1200;137790;-54
2021/09/22 01:08:33;;;;;;;1.80;1.50;;;;;;;6.66;80.53;99421.16;116628;1200;22298;-54
2021/09/22 01:11:01;;;;;;;2.80;1.80;;;;;;;6.68;80.76;99416.39;116491;1201;139215;-54
2021/09/22 01:13:30;;;;;;;2.00;1.60;;;;;;;6.71;80.62;99414.25;116587;1201;23610;-54
2021/09/22 01:15:59;;;;;;;1.90;1.50;;;;;;;6.72;80.68;99407.52;116697;1200;138060;-54
2021/09/22 01:18:29;;;;;;;2.20;1.70;;;;;;;6.78;80.42;99411.60;116650;1200;22327;-54
2021/09/22 01:20:57;;;;;;;2.50;1.70;;;;;;;6.80;80.22;99412.22;116613;1200;22337;-54
2021/09/22 01:23:27;;;;;;;3.80;2.20;;;;;;;6.81;80.29;99410.73;116491;1201;137667;-54
2021/09/22 01:26:00;;;;;;;1.80;1.60;;;;;;;6.80;79.82;99412.88;115093;1193;22432;-54
2021/09/22 01:28:28;;;;;;;5.10;2.00;;;;;;;6.81;80.09;99408.69;116404;1200;138316;-54
2021/09/22 01:30:59;;;;;;;3.50;1.70;;;;;;;6.84;80.01;99410.48;116605;1200;22228;-54
2021/09/22 01:33:27;;;;;;;2.40;1.50;;;;;;;6.86;79.97;99410.31;116698;1200;22253;-54
2021/09/22 01:36:03;;;;;;;2.20;1.80;;;;;;;6.88;79.80;99411.50;116547;1201;137425;-54
2021/09/22 01:38:31;;;;;;;4.00;2.20;;;;;;;6.86;79.60;99408.81;116608;1200;22328;-54
2021/09/22 01:41:13;;;;;;;3.00;2.10;;;;;;;6.85;79.74;99409.11;116526;1201;137592;-54
2021/09/22 01:43:51;;;;;;;3.30;2.00;;;;;;;6.84;79.71;99410.43;116686;1201;22328;-54
2021/09/22 01:46:21;;;;;;;2.40;1.70;;;;;;;6.82;79.38;99406.38;116420;1201;138919;-54
2021/09/22 01:48:50;;;;;;;1.70;1.60;;;;;;;6.81;79.36;99409.64;116517;1194;23548;-54
2021/09/22 01:51:18;;;;;;;2.30;1.80;;;;;;;6.79;79.46;99408.36;116599;1201;22324;-54
2021/09/22 01:54:07;;;;;;;3.70;1.50;;;;;;;6.76;79.40;99411.13;116587;1200;139101;-55
2021/09/22 01:56:54;;;;;;;2.50;1.60;;;;;;;6.73;79.30;99407.92;116694;1193;22290;-54
2021/09/22 01:59:22;;;;;;;2.70;1.80;;;;;;;6.73;79.38;99405.69;116522;1200;138535;-55
2021/09/22 02:02:12;;;;;;;1.90;1.70;;;;;;;6.70;79.53;99408.27;116607;1201;22229;-54
2021/09/22 02:04:57;;;;;;;1.80;1.60;;;;;;;6.69;79.66;99403.26;116454;1195;139942;-54
2021/09/22 02:07:26;;;;;;;2.20;1.70;;;;;;;6.70;79.75;99406.39;116528;1200;23417;-54
2021/09/22 02:09:59;;;;;;;2.40;1.60;;;;;;;6.70;79.35;99404.11;116523;1200;138091;-54
2021/09/22 02:12:27;;;;;;;6.60;1.90;;;;;;;6.69;79.20;99404.69;116628;1201;22308;-54
2021/09/22 02:14:58;;;;;;;2.10;1.50;;;;;;;6.70;79.52;99402.64;116565;1200;23430;-54
2021/09/22 02:17:46;;;;;;;2.40;2.20;;;;;;;6.71;79.38;99402.39;116545;1200;138222;-54
2021/09/22 02:20:14;;;;;;;1.60;1.40;;;;;;;6.71;79.08;99405.33;116620;1200;23277;-55
2021/09/22 02:23:04;;;;;;;2.10;1.40;;;;;;;6.71;79.25;99405.66;116577;1200;138520;-54
2021/09/22 02:25:32;;;;;;;2.30;1.40;;;;;;;6.72;79.01;99406.77;116708;1200;23317;-55
2021/09/22 02:28:21;;;;;;;1.80;1.30;;;;;;;6.73;79.09;99403.27;116557;1200;137650;-54
2021/09/22 02:30:49;;;;;;;5.90;1.50;;;;;;;6.76;79.29;99404.69;116586;1200;22367;-55
2021/09/22 02:33:18;;;;;;;3.10;1.70;;;;;;;6.78;79.26;99403.91;116610;1201;22889;-54
2021/09/22 02:35:46;;;;;;;2.20;1.50;;;;;;;6.78;78.93;99404.33;115479;1201;138265;-53
2021/09/22 02:38:20;;;;;;;1.90;1.60;;;;;;;6.75;78.94;99401.20;112314;1193;22642;-53
2021/09/22 02:40:49;;;;;;;1.70;1.60;;;;;;;6.72;78.85;99399.95;116509;1200;138420;-52
2021/09/22 02:43:23;;;;;;;3.90;1.70;;;;;;;6.70;79.05;99402.39;116686;1186;22906;-52
2021/09/22 02:45:52;;;;;;;2.60;1.70;;;;;;;6.71;79.23;99400.67;116532;1201;137829;-53
2021/09/22 02:48:25;;;;;;;1.70;1.30;;;;;;;6.72;79.27;99399.18;116664;1201;23051;-53
2021/09/22 02:50:53;;;;;;;3.00;1.50;;;;;;;6.74;79.25;99400.04;116587;1201;22910;-53
2021/09/22 02:53:22;;;;;;;1.40;1.30;;;;;;;6.74;79.14;99399.17;116528;1201;138775;-53
2021/09/22 02:55:50;;;;;;;2.20;1.70;;;;;;;6.72;79.07;99399.77;116664;1193;23156;-53
2021/09/22 02:58:19;;;;;;;2.20;1.70;;;;;;;6.68;79.00;99399.73;116459;1200;139359;-53
2021/09/22 03:01:00;;;;;;;3.20;1.80;;;;;;;6.62;78.92;99402.47;116573;1200;22419;-53
2021/09/22 03:03:31;;;;;;;4.60;1.50;;;;;;;6.58;79.42;99403.57;116570;1201;23290;-53
2021/09/22 03:06:07;;;;;;;5.50;1.50;;;;;;;6.58;79.26;99400.86;116796;1199;138216;-53
2021/09/22 03:08:38;;;;;;;2.30;1.50;;;;;;;6.57;79.47;99402.84;116840;1199;22132;-54
2021/09/22 03:11:08;;;;;;;4.30;1.50;;;;;;;6.56;79.59;99400.14;116843;1198;137573;-53
2021/09/22 03:13:37;;;;;;;2.50;1.50;;;;;;;6.52;79.48;99398.54;117022;1198;22380;-53
2021/09/22 03:16:06;;;;;;;2.40;1.20;;;;;;;6.49;79.71;99402.48;116918;1198;137677;-53
2021/09/22 03:18:35;;;;;;;2.00;1.40;;;;;;;6.48;79.91;99400.52;116951;1199;22220;-53
2021/09/22 03:21:03;;;;;;;2.30;1.60;;;;;;;6.49;79.95;99399.17;116992;1198;22386;-53
2021/09/22 03:23:32;;;;;;;2.20;1.40;;;;;;;6.47;80.18;99399.52;116800;1198;137671;-53
2021/09/22 03:26:03;;;;;;;2.40;1.60;;;;;;;6.48;80.37;99394.77;116988;1198;23441;-53
2021/09/22 03:28:32;;;;;;;2.50;1.60;;;;;;;6.49;80.61;99399.56;116897;1199;137533;-54
2021/09/22 03:31:00;;;;;;;2.10;1.50;;;;;;;6.51;80.47;99395.43;116708;1199;22414;-53
2021/09/22 03:33:31;;;;;;;2.00;1.40;;;;;;;6.51;80.13;99400.14;116574;1200;23272;-53
2021/09/22 03:35:59;;;;;;;2.50;1.60;;;;;;;6.47;80.10;99400.55;116550;1200;137389;-53
2021/09/22 03:38:27;;;;;;;2.40;1.70;;;;;;;6.45;80.15;99398.98;116705;1199;23420;-53
2021/09/22 03:40:58;;;;;;;1.90;1.60;;;;;;;6.44;80.03;99400.58;116713;1199;137710;-53
2021/09/22 03:43:27;;;;;;;1.80;1.60;;;;;;;6.43;80.25;99399.42;116783;1199;22258;-53
2021/09/22 03:45:55;;;;;;;2.80;1.80;;;;;;;6.45;80.11;99397.23;116924;1198;137672;-54
2021/09/22 03:48:23;;;;;;;2.60;1.60;;;;;;;6.46;80.34;99399.00;116899;1198;22256;-54
2021/09/22 03:51:00;;;;;;;5.40;2.90;;;;;;;6.47;80.03;99395.73;116966;1199;22324;-53
2021/09/22 03:53:41;;;;;;;2.30;1.50;;;;;;;6.48;80.18;99397.81;116614;1199;139336;-53
2021/09/22 03:56:09;;;;;;;4.90;2.10;;;;;;;6.46;80.04;99395.88;116995;1199;22370;-53
2021/09/22 03:58:40;;;;;;;3.30;1.70;;;;;;;6.46;80.41;99398.13;116743;1193;137946;-53
2021/09/22 04:01:08;;;;;;;2.60;1.70;;;;;;;6.47;80.29;99402.44;116875;1198;22393;-54
2021/09/22 04:03:36;;;;;;;3.50;1.80;;;;;;;6.48;80.35;99399.17;116918;1199;22778;-53
2021/09/22 04:06:05;;;;;;;3.80;2.10;;;;;;;6.47;80.12;99395.79;116908;1199;137360;-54
2021/09/22 04:08:33;;;;;;;2.60;1.90;;;;;;;6.44;80.06;99401.94;117021;1198;22247;-53
2021/09/22 04:11:01;;;;;;;4.00;1.80;;;;;;;6.45;80.11;99402.34;116806;1199;138711;-53
2021/09/22 04:13:33;;;;;;;2.60;2.30;;;;;;;6.44;80.04;99400.78;116738;1200;23197;-54
2021/09/22 04:16:02;;;;;;;2.10;1.80;;;;;;;6.43;80.04;99397.80;116743;1199;137675;-53
2021/09/22 04:18:31;;;;;;;3.20;2.10;;;;;;;6.46;80.43;99402.14;116758;1199;22296;-54
2021/09/22 04:20:59;;;;;;;4.10;1.70;;;;;;;6.49;80.49;99400.48;116777;1199;22256;-54
2021/09/22 04:23:28;;;;;;;4.70;2.60;;;;;;;6.52;80.31;99393.17;116696;1192;138504;-54
2021/09/22 04:25:57;;;;;;;2.40;1.50;;;;;;;6.53;80.28;99394.16;116682;1199;22972;-54
2021/09/22 04:28:26;;;;;;;1.70;1.40;;;;;;;6.52;80.17;99389.77;116531;1200;137707;-52
2021/09/22 04:31:12;;;;;;;2.60;1.70;;;;;;;6.54;80.30;99389.93;116813;1199;22231;-54
2021/09/22 04:33:59;;;;;;;2.20;1.60;;;;;;;6.58;80.15;99388.41;116697;1199;137653;-53
2021/09/22 04:36:46;;;;;;;2.20;2.00;;;;;;;6.60;80.13;99389.64;116728;1200;22341;-54
2021/09/22 04:39:33;;;;;;;1.90;1.70;;;;;;;6.60;80.09;99390.58;116600;1199;22355;-54
2021/09/22 04:42:20;;;;;;;2.70;1.60;;;;;;;6.64;80.24;99394.60;116763;1198;137472;-54
2021/09/22 04:45:07;;;;;;;4.40;2.40;;;;;;;6.65;80.26;99387.74;116791;1199;22187;-54
2021/09/22 04:47:54;;;;;;;3.60;2.50;;;;;;;6.69;80.25;99392.50;116729;1199;137899;-54
2021/09/22 04:50:41;;;;;;;3.50;2.30;;;;;;;6.70;80.31;99393.89;116840;1198;22320;-53
2021/09/22 04:53:28;;;;;;;2.20;2.00;;;;;;;6.72;80.24;99398.86;116576;1199;138460;-54
2021/09/22 04:56:15;;;;;;;2.70;2.00;;;;;;;6.70;80.06;99399.45;116876;1198;22749;-54
2021/09/22 04:59:15;;;;;;;5.10;2.20;;;;;;;6.68;79.87;99402.80;116647;1199;138061;-54
2021/09/22 05:02:02;;;;;;;3.10;1.80;;;;;;;6.66;80.25;99401.67;116846;1199;22235;-54
2021/09/22 05:04:51;;;;;;;2.80;2.20;;;;;;;6.65;80.33;99403.65;116768;1199;138382;-55
2021/09/22 05:07:59;;;;;;;2.10;1.70;;;;;;;6.65;80.33;99403.02;116854;1199;22307;-54
2021/09/22 05:10:46;;;;;;;;;;;;;;;6.65;80.51;99404.42;116757;1197;138320;-54
2021/09/22 05:13:33;;;;;;;5.10;3.70;;;;;;;6.65;80.28;99400.95;116686;1185;23130;-54
2021/09/22 05:16:20;;;;;;;4.40;2.60;;;;;;;6.66;80.30;99404.05;116735;1199;137784;-54
2021/09/22 05:19:11;;;;;;;6.40;3.30;;;;;;;6.64;80.18;99397.46;116836;1199;22981;-54
2021/09/22 05:21:59;;;;;;;3.90;2.50;;;;;;;6.65;80.01;99403.02;116748;1198;137701;-54
2021/09/22 05:25:06;;;;;;;4.50;1.60;;;;;;;6.66;80.18;99405.04;116879;1197;22239;-54
2021/09/22 05:27:53;;;;;;;3.40;1.90;;;;;;;6.67;80.11;99405.65;116754;1199;22338;-54
2021/09/22 05:30:40;;;;;;;2.40;1.70;;;;;;;6.66;80.07;99404.05;116839;1193;22343;-53
2021/09/22 05:33:26;;;;;;;3.40;2.00;;;;;;;6.61;79.55;99403.15;116842;1199;22355;-54
2021/09/22 05:36:13;;;;;;;3.20;2.10;;;;;;;6.56;79.49;99407.14;116732;1198;137345;-54
2021/09/22 05:38:59;;;;;;;2.60;2.10;;;;;;;6.55;79.79;99407.82;116808;1199;22318;-54
2021/09/22 05:41:48;;;;;;;3.00;2.00;;;;;;;6.57;79.84;99410.62;116544;1200;137476;-54
2021/09/22 05:44:36;;;;;;;7.60;2.90;;;;;;;6.57;79.71;99411.20;116874;1199;22285;-54
2021/09/22 05:47:22;;;;;;;3.80;3.10;;;;;;;6.60;79.87;99410.91;116650;1199;138653;-54
2021/09/22 05:50:10;;;;;;;7.80;3.60;;;;;;;6.64;79.90;99407.97;116822;1199;22321;-53
2021/09/22 05:52:56;;;;;;;4.80;2.50;;;;;;;6.68;79.74;99407.96;116742;1199;138587;-54
2021/09/22 05:55:43;;;;;;;3.00;2.20;;;;;;;6.70;79.37;99410.23;116706;1199;22281;-54
2021/09/22 05:58:31;;;;;;;;;;;;;;;6.69;79.54;99405.83;116837;1198;139372;-55
2021/09/22 06:01:17;;;;;;;3.90;3.30;;;;;;;6.70;79.27;99402.69;116817;1197;22155;-55
2021/09/22 06:04:05;;;;;;;3.70;2.10;;;;;;;6.69;79.33;99404.74;116863;1192;22346;-55
2021/09/22 06:06:56;;;;;;;5.70;2.30;;;;;;;6.66;79.03;99407.38;116719;1199;137920;-55
2021/09/22 06:09:44;;;;;;;;;;;;;;;6.65;79.46;99409.81;116837;1197;23384;-54
2021/09/22 06:12:27;;;;;;;3.20;2.30;;;;;;;6.63;79.14;99408.52;116749;1184;124134;-55
2021/09/22 06:14:55;;;;;;;2.90;2.10;;;;;;;6.63;79.44;99406.94;116719;1198;23124;-55
2021/09/22 06:17:24;;;;;;;3.40;2.60;;;;;;;6.64;79.35;99404.02;116694;1199;138715;-54
2021/09/22 06:19:52;;;;;;;4.80;2.90;;;;;;;6.66;79.04;99403.59;116721;1198;22323;-54
2021/09/22 06:22:37;;;;;;;3.30;2.50;;;;;;;6.66;78.81;99399.88;116591;1199;137929;-54
2021/09/22 06:25:06;;;;;;;5.00;2.20;;;;;;;6.63;78.55;99399.73;116817;1198;22231;-55
2021/09/22 06:27:34;;;;;;;3.20;2.20;;;;;;;6.63;78.66;99401.61;116761;1200;22312;-53
2021/09/22 06:30:03;;;;;;;2.70;2.00;;;;;;;6.65;79.07;99402.42;116718;1197;137908;-54
2021/09/22 06:32:33;;;;;;;2.80;1.90;;;;;;;6.70;79.29;99405.30;116643;1199;22428;-54
2021/09/22 06:35:19;;;;;;;9.50;3.10;;;;;;;6.77;78.89;99405.79;116638;1199;138093;-54
2021/09/22 06:37:58;;;;;;;8.60;3.00;;;;;;;6.83;79.05;99407.80;116632;1200;22416;-54
2021/09/22 06:40:31;;;;;;;3.80;2.70;;;;;;;6.86;78.58;99406.41;116715;1199;22371;-56
2021/09/22 06:43:02;;;;;;;5.80;2.60;;;;;;;6.85;78.40;99407.70;116652;1199;138594;-53
2021/09/22 06:48:17;;;;;;;3.50;2.20;;;;;;;6.92;78.66;99409.80;110818;1215;544890;-54
2021/09/22 06:50:45;;;;;;;3.40;2.50;;;;;;;6.91;78.36;99410.93;112028;1204;22586;-55
2021/09/22 06:53:14;;;;;;;3.30;2.40;;;;;;;6.96;78.18;99410.87;116186;1204;136783;-54
2021/09/22 06:55:43;;;;;;;3.80;2.40;;;;;;;6.98;78.01;99408.86;116243;1204;23138;-55
2021/09/22 06:58:11;;;;;;;5.60;2.60;;;;;;;7.00;77.88;99408.96;116236;1204;22295;-54
2021/09/22 07:00:39;;;;;;;2.50;2.10;;;;;;;7.02;78.13;99404.77;116036;1203;137695;-55
2021/09/22 07:03:11;;;;;;;4.20;2.20;;;;;;;7.02;77.99;99408.19;116235;1203;22314;-55
2021/09/22 07:05:42;;;;;;;2.80;2.10;;;;;;;7.02;78.00;99409.39;116009;1204;137596;-55
2021/09/22 07:08:14;;;;;;;2.90;2.10;;;;;;;7.03;77.72;99406.96;116228;1203;23586;-55
2021/09/22 07:10:42;;;;;;;3.70;2.20;;;;;;;7.02;77.42;99411.39;116094;1203;137286;-55
2021/09/22 07:13:10;;;;;;;3.90;2.50;;;;;;;7.01;77.59;99411.15;116075;1205;22309;-55
2021/09/22 07:15:41;;;;;;;4.10;2.50;;;;;;;7.00;77.46;99412.52;116225;1203;22330;-55
2021/09/22 07:18:17;;;;;;;5.20;2.50;;;;;;;7.02;77.73;99415.23;116114;1205;137690;-55
2021/09/22 07:20:47;;;;;;;2.90;2.30;;;;;;;7.07;77.67;99415.66;116166;1204;22352;-56
2021/09/22 07:23:16;;;;;;;5.30;3.00;;;;;;;7.10;77.44;99415.89;116152;1204;138473;-55
2021/09/22 07:25:47;;;;;;;4.40;3.00;;;;;;;7.15;77.33;99418.64;116216;1204;23481;-55
2021/09/22 07:28:15;;;;;;;4.70;3.00;;;;;;;7.18;77.09;99421.80;116212;1204;22300;-55
2021/09/22 07:30:43;;;;;;;3.50;2.60;;;;;;;7.18;77.39;99416.45;116030;1204;136644;-55
2021/09/22 07:33:11;;;;;;;3.70;2.30;;;;;;;7.20;76.98;99416.77;116217;1203;22161;-54
2021/09/22 07:35:39;;;;;;;6.20;2.10;;;;;;;7.20;77.21;99413.68;116191;1204;137549;-55
2021/09/22 07:38:11;;;;;;;5.20;2.70;;;;;;;7.22;76.89;99416.02;116246;1205;22209;-55
2021/09/22 07:40:40;;;;;;;6.70;2.90;;;;;;;7.23;76.68;99412.42;116123;1205;137900;-55
2021/09/22 07:43:08;;;;;;;8.20;3.20;;;;;;;7.25;76.50;99412.35;116295;1204;22322;-55
2021/09/22 07:45:40;;;;;;;6.10;3.20;;;;;;;7.25;76.22;99416.48;116318;1204;23175;-54
2021/09/22 07:48:11;;;;;;;5.80;2.50;;;;;;;7.24;76.07;99416.50;116070;1205;138014;-55
2021/09/22 07:50:40;;;;;;;4.00;2.30;;;;;;;7.22;75.83;99418.54;116183;1205;22398;-55
2021/09/22 07:53:08;;;;;;;2.50;1.70;;;;;;;7.18;75.45;99414.80;115885;1204;136692;-55
2021/09/22 07:55:39;;;;;;;3.50;2.30;;;;;;;7.12;75.40;99415.07;116264;1205;22934;-55
2021/09/22 07:58:07;;;;;;;4.80;2.70;;;;;;;7.11;75.72;99413.20;116192;1190;23099;-55
2021/09/22 08:00:35;;;;;;;3.50;2.50;;;;;;;7.14;76.00;99412.28;116091;1205;136803;-55
2021/09/22 08:03:03;;;;;;;6.10;2.40;;;;;;;7.15;76.08;99411.06;116224;1205;22370;-53
2021/09/22 08:05:38;;;;;;;6.70;2.40;;;;;;;7.16;76.10;99409.09;116107;1200;137057;-54
2021/09/22 08:08:07;;;;;;;5.00;2.50;;;;;;;7.18;76.52;99414.29;116121;1205;22447;-54
2021/09/22 08:10:35;;;;;;;4.40;2.40;;;;;;;7.19;76.54;99413.06;116210;1205;22388;-53
2021/09/22 08:13:08;;;;;;;9.20;2.50;;;;;;;7.20;76.33;99415.30;116043;1205;137404;-53
2021/09/22 08:15:38;;;;;;;3.10;2.10;;;;;;;7.23;76.66;99414.75;116256;1205;22355;-53
2021/09/22 08:18:07;;;;;;;5.90;2.50;;;;;;;7.26;76.33;99408.70;115947;1205;139723;-54
2021/09/22 08:20:36;;;;;;;4.80;2.90;;;;;;;7.26;76.16;99410.96;116049;1205;23029;-54
2021/09/22 08:23:04;;;;;;;10.10;3.70;;;;;;;7.24;76.07;99409.08;115924;1205;139004;-54
2021/09/22 08:25:33;;;;;;;5.20;3.00;;;;;;;7.23;76.25;99413.39;116040;1205;22309;-62
2021/09/22 08:28:01;;;;;;;4.50;2.40;;;;;;;7.22;75.95;99412.13;116017;1205;23545;-62
2021/09/22 08:30:29;;;;;;;4.10;2.60;;;;;;;7.21;75.90;99412.45;115930;1206;136958;-63
2021/09/22 08:32:58;;;;;;;3.60;2.30;;;;;;;7.19;75.90;99411.33;116032;1206;22347;-62
2021/09/22 08:35:26;;;;;;;3.70;2.20;;;;;;;7.18;75.44;99410.97;115899;1205;138581;-61
2021/09/22 08:37:54;;;;;;;3.70;2.20;;;;;;;7.18;75.11;99411.56;116069;1205;22308;-62
2021/09/22 08:40:22;;;;;;;4.50;3.00;;;;;;;7.19;75.15;99408.66;116046;1205;22243;-62
2021/09/22 08:42:50;;;;;;;5.20;2.80;;;;;;;7.21;75.29;99407.08;115916;1204;137718;-62
2021/09/22 08:45:18;;;;;;;4.10;2.50;;;;;;;7.23;75.12;99404.45;116012;1205;22280;-63
2021/09/22 08:47:47;;;;;;;7.60;2.60;;;;;;;7.28;75.05;99402.95;115952;1205;137209;-62
2021/09/22 08:50:16;;;;;;;5.30;2.70;;;;;;;7.31;75.02;99403.89;116040;1204;22317;-62
2021/09/22 08:52:51;;;;;;;5.00;2.60;;;;;;;7.35;75.00;99402.44;115906;1205;137834;-63
2021/09/22 08:55:28;;;;;;;;;;;;;;;7.38;75.20;99397.39;116088;1205;22330;-62
2021/09/22 08:57:56;;;;;;;;;;;;;;;7.43;75.07;99396.85;116099;1205;22394;-62
2021/09/22 09:00:24;;;;;;;2.50;1.70;;;;;;;7.47;74.96;99399.77;115923;1205;124645;-61
2021/09/22 09:02:53;;;;;;;5.00;1.90;;;;;;;7.50;74.47;99396.66;115989;1198;23148;-62
2021/09/22 09:05:23;;;;;;;3.10;2.10;;;;;;;7.55;74.49;99396.77;115932;1205;138485;-62
2021/09/22 09:07:54;;;;;;;4.40;2.70;;;;;;;7.58;74.53;99398.02;116016;1206;22298;-61
2021/09/22 09:10:29;;;;;;;5.00;3.40;;;;;;;7.61;74.70;99399.55;116046;1205;22963;-62
2021/09/22 09:13:17;;;;;;;10.40;5.50;;;;;;;7.62;75.04;99403.63;115921;1205;135989;-62
2021/09/22 09:15:47;;;;;;;13.90;6.60;;;;;;;7.61;75.19;99401.34;116051;1204;22328;-62
2021/09/22 09:18:22;;;;;;;9.30;4.80;;;;;;;7.62;75.12;99402.17;115971;1204;138185;-62
2021/09/22 09:20:53;;;;;;;5.80;4.00;;;;;;;7.61;75.31;99404.22;116032;1204;22376;-63
2021/09/22 09:23:21;;;;;;;7.80;3.80;;;;;;;7.61;75.36;99405.69;115929;1204;137678;-62
2021/09/22 09:26:00;;;;;;;4.10;3.40;;;;;;;7.57;75.04;99402.77;116075;1205;23416;-62
2021/09/22 09:28:28;;;;;;;4.10;3.10;;;;;;;7.51;75.01;99401.02;116064;1204;23341;-63
2021/09/22 09:30:59;;;;;;;5.80;3.40;;;;;;;7.44;75.42;99399.91;115966;1205;139014;-62
2021/09/22 09:33:36;;;;;;;5.10;4.20;;;;;;;7.40;75.83;99403.89;116065;1205;22302;-63
2021/09/22 09:36:17;;;;;;;6.30;3.60;;;;;;;7.39;76.10;99400.80;115940;1198;137854;-63
2021/09/22 09:39:07;;;;;;;4.90;3.70;;;;;;;7.43;76.20;99401.90;116068;1205;22143;-62
2021/09/22 09:41:42;;;;;;;8.30;4.90;;;;;;;7.46;76.42;99404.34;115935;1204;137946;-62
2021/09/22 09:44:12;;;;;;;7.00;5.00;;;;;;;7.48;76.37;99404.50;116040;1204;22273;-62
2021/09/22 09:46:41;;;;;;;6.80;4.30;;;;;;;7.52;76.05;99399.36;116069;1205;22346;-62
2021/09/22 09:49:14;;;;;;;5.40;3.70;;;;;;;7.56;75.85;99397.16;115910;1204;138075;-63
2021/09/22 09:51:47;;;;;;;6.40;3.70;;;;;;;7.60;75.55;99396.20;116026;1205;22355;-63
2021/09/22 09:54:19;;;;;;;6.60;3.40;;;;;;;7.65;75.18;99394.52;115963;1204;137737;-63
2021/09/22 09:56:49;;;;;;;5.00;3.30;;;;;;;7.69;74.82;99392.69;115974;1200;23143;-62
2021/09/22 09:59:18;;;;;;;6.50;3.60;;;;;;;7.72;74.61;99396.88;116103;1205;137630;-62
2021/09/22 10:01:48;;;;;;;6.50;3.50;;;;;;;7.72;74.29;99400.52;116017;1206;22345;-62
2021/09/22 10:04:18;;;;;;;6.00;3.70;;;;;;;7.72;74.17;99396.60;116585;1202;22233;-62
2021/09/22 10:06:47;;;;;;;5.80;3.90;;;;;;;7.70;74.16;99394.67;116499;1202;137744;-62
2021/09/22 10:09:15;;;;;;;9.40;5.00;;;;;;;7.66;73.78;99395.89;116576;1201;22316;-62
2021/09/22 10:11:48;;;;;;;6.90;4.60;;;;;;;7.61;74.04;99395.21;116561;1201;137348;-63
2021/09/22 10:14:16;;;;;;;6.50;3.40;;;;;;;7.57;73.97;99395.51;116710;1201;23489;-62
2021/09/22 10:16:48;;;;;;;9.00;5.10;;;;;;;7.53;74.40;99391.79;116642;1200;22222;-63
2021/09/22 10:19:17;;;;;;;9.10;5.00;;;;;;;7.54;74.27;99394.45;116588;1200;137699;-62
2021/09/22 10:21:48;;;;;;;11.50;6.50;;;;;;;7.57;74.70;99397.61;116632;1202;22315;-62
2021/09/22 10:24:16;;;;;;;16.50;6.90;;;;;;;7.60;74.57;99398.34;116544;1201;138654;-62
2021/09/22 10:27:00;;;;;;;11.50;5.50;;;;;;;7.64;74.75;99399.87;116701;1200;22250;-63
2021/09/22 10:30:00;;;;;;;12.40;4.90;;;;;;;7.71;74.64;99403.25;116543;1201;137896;-62
2021/09/22 10:32:37;;;;;;;9.00;5.10;;;;;;;7.80;74.42;99399.46;116685;1201;22317;-62
2021/09/22 10:35:24;;;;;;;16.20;6.00;;;;;;;7.89;74.37;99396.27;116602;1201;136771;-62
2021/09/22 10:37:59;;;;;;;11.40;6.10;;;;;;;8.00;74.10;99396.63;116709;1201;22314;-62
2021/09/22 10:40:33;;;;;;;11.60;5.20;;;;;;;8.10;73.65;99394.75;116690;1200;22324;-62
2021/09/22 10:43:13;;;;;;;8.30;4.20;;;;;;;8.19;73.21;99395.77;116758;1196;22299;-61
2021/09/22 10:45:58;;;;;;;9.30;5.70;;;;;;;8.24;72.70;99389.08;116774;1201;22397;-62
2021/09/22 10:48:27;;;;;;;8.50;4.60;;;;;;;8.30;72.41;99390.41;116368;1201;138608;-62
2021/09/22 10:50:57;;;;;;;6.70;4.40;;;;;;;8.33;71.98;99390.02;116619;1201;22344;-62
2021/09/22 10:53:32;;;;;;;5.50;3.40;;;;;;;8.36;71.69;99393.00;116686;1200;23523;-62
2021/09/22 10:56:26;;;;;;;6.10;4.80;;;;;;;8.34;71.35;99388.41;116592;1201;137611;-62
2021/09/22 10:58:58;;;;;;;16.20;6.40;;;;;;;8.31;71.41;99384.25;116712;1201;23185;-62
2021/09/22 11:01:40;;;;;;;15.50;7.20;;;;;;;8.29;71.70;99384.48;116662;1200;137663;-62
2021/09/22 11:04:10;;;;;;;15.10;7.10;;;;;;;8.30;71.88;99389.44;116801;1201;22294;-62
2021/09/22 11:06:57;;;;;;;9.20;5.50;;;;;;;8.29;71.70;99392.56;116351;1200;138583;-62
2021/09/22 11:09:29;;;;;;;10.90;6.10;;;;;;;8.25;71.88;99392.72;116685;1201;22389;-61
2021/09/22 11:11:59;;;;;;;8.80;5.70;;;;;;;8.20;72.03;99395.74;116665;1201;22891;-61
2021/09/22 11:14:41;;;;;;;13.60;6.20;;;;;;;8.16;71.92;99394.20;116583;1201;137406;-61
2021/09/22 11:17:26;;;;;;;8.10;3.50;;;;;;;8.11;72.00;99395.52;116775;1200;22290;-62
2021/09/22 11:19:58;;;;;;;7.10;3.60;;;;;;;8.12;72.27;99392.50;116570;1200;138353;-61
2021/09/22 11:22:46;;;;;;;12.20;5.10;;;;;;;8.15;71.74;99389.59;116678;1199;22908;-61
2021/09/22 11:25:19;;;;;;;8.10;4.20;;;;;;;8.18;71.70;99390.88;116602;1201;137604;-61
2021/09/22 11:27:48;;;;;;;4.40;3.60;;;;;;;8.19;71.38;99388.17;116565;1201;22396;-61
2021/09/22 11:30:16;;;;;;;13.20;4.70;;;;;;;8.20;71.36;99390.63;116634;1197;24378;-61
2021/09/22 11:32:46;;;;;;;5.70;3.70;;;;;;;8.21;71.23;99388.00;116564;1200;136970;-62
2021/09/22 11:35:17;;;;;;;8.10;3.90;;;;;;;8.22;71.35;99384.26;116535;1200;23791;-61
2021/09/22 11:37:46;;;;;;;6.60;4.80;;;;;;;8.23;71.35;99386.71;112595;1194;137109;-60
2021/09/22 11:40:18;;;;;;;4.90;3.90;;;;;;;8.22;71.58;99382.31;116697;1201;23487;-61
2021/09/22 11:43:12;;;;;;;6.10;3.50;;;;;;;8.21;71.63;99383.49;116563;1200;137371;-61
2021/09/22 11:45:57;;;;;;;5.60;3.90;;;;;;;8.23;71.75;99383.89;116757;1201;23368;-61
2021/09/22 11:48:26;;;;;;;7.00;4.10;;;;;;;8.27;71.79;99384.39;116624;1201;137627;-61
2021/09/22 11:51:00;;;;;;;6.10;4.60;;;;;;;8.29;71.64;99381.00;116701;1201;22341;-62
2021/09/22 11:53:42;;;;;;;12.00;5.60;;;;;;;8.29;71.63;99382.70;116779;1201;22250;-63
2021/09/22 11:56:10;;;;;;;8.70;5.00;;;;;;;8.27;71.47;99384.23;116630;1201;138655;-62
2021/09/22 11:58:43;;;;;;;5.70;3.90;;;;;;;8.25;71.34;99379.86;116720;1201;22301;-63
2021/09/22 12:01:11;;;;;;;5.50;4.30;;;;;;;8.20;71.36;99380.86;116648;1201;136883;-62
2021/09/22 12:03:39;;;;;;;7.00;4.50;;;;;;;8.15;71.29;99384.70;116657;1201;22268;-62
2021/09/22 12:06:10;;;;;;;9.00;5.20;;;;;;;8.13;71.43;99389.00;116687;1201;22375;-62
2021/09/22 12:08:39;;;;;;;10.30;5.00;;;;;;;8.09;71.45;99382.79;116521;1200;136878;-63